Time,TemperatureF,DewpointF,PressureIn,WindDirection,WindDirectionDegrees,WindSpeedMPH,WindSpeedGustMPH,Humidity,HourlyPrecipIn,Conditions,Clouds,dailyrainin,SoftwareType,DateUTC
2013-06-02 00:01:00,63.8,62.6,29.55,NNE,21,3.0,9.0,96,0.03,,,0.22,WUHU216DAVISVP2,2013-06-02 04:01:00,
2013-06-02 00:06:00,63.7,62.5,29.54,East,95,4.0,9.0,96,0.02,,,0.00,WUHU216DAVISVP2,2013-06-02 04:06:00,
2013-06-02 00:11:00,63.7,62.5,29.54,North,8,1.0,9.0,96,0.02,,,0.00,WUHU216DAVISVP2,2013-06-02 04:11:00,
2013-06-02 00:16:00,63.6,62.4,29.54,NNW,335,3.0,8.0,96,0.02,,,0.00,WUHU216DAVISVP2,2013-06-02 04:16:00,
2013-06-02 00:21:00,63.3,62.1,29.54,NNE,32,4.0,11.0,96,0.03,,,0.01,WUHU216DAVISVP2,2013-06-02 04:21:00,
2013-06-02 00:26:00,63.0,61.8,29.53,NE,38,5.0,11.0,96,0.03,,,0.01,WUHU216DAVISVP2,2013-06-02 04:26:00,
2013-06-02 00:31:00,62.8,61.6,29.53,North,351,2.0,10.0,96,0.03,,,0.01,WUHU216DAVISVP2,2013-06-02 04:31:00,
2013-06-02 00:36:00,62.7,61.5,29.52,East,84,0.0,10.0,96,0.03,,,0.01,WUHU216DAVISVP2,2013-06-02 04:36:00,
2013-06-02 00:41:00,62.6,61.7,29.52,East,91,1.0,9.0,97,0.02,,,0.01,WUHU216DAVISVP2,2013-06-02 04:41:00,
2013-06-02 00:46:00,62.6,61.7,29.53,NE,46,3.0,6.0,97,0.02,,,0.01,WUHU216DAVISVP2,2013-06-02 04:46:00,
2013-06-02 00:51:00,62.5,61.6,29.53,NNE,13,2.0,8.0,97,0.02,,,0.01,WUHU216DAVISVP2,2013-06-02 04:51:00,
2013-06-02 00:56:00,62.5,61.6,29.53,NNE,23,3.0,8.0,97,0.01,,,0.01,WUHU216DAVISVP2,2013-06-02 04:56:00,
2013-06-02 01:01:00,62.4,61.5,29.54,East,86,1.0,7.0,97,0.01,,,0.01,WUHU216DAVISVP2,2013-06-02 05:01:00,
2013-06-02 01:06:00,62.4,61.5,29.54,ENE,73,1.0,7.0,97,0.01,,,0.01,WUHU216DAVISVP2,2013-06-02 05:06:00,
2013-06-02 01:11:00,62.4,61.5,29.54,East,98,4.0,6.0,97,0.01,,,0.01,WUHU216DAVISVP2,2013-06-02 05:11:00,
2013-06-02 01:16:00,62.3,61.4,29.54,ENE,62,11.0,16.0,97,0.01,,,0.01,WUHU216DAVISVP2,2013-06-02 05:16:00,
2013-06-02 01:21:00,62.2,61.3,29.54,ENE,69,7.0,16.0,97,0.00,,,0.01,WUHU216DAVISVP2,2013-06-02 05:21:00,
2013-06-02 01:26:00,61.7,60.5,29.54,East,82,9.0,17.0,96,0.00,,,0.01,WUHU216DAVISVP2,2013-06-02 05:26:00,
2013-06-02 01:31:00,61.4,60.2,29.54,ENE,63,3.0,17.0,96,0.00,,,0.01,WUHU216DAVISVP2,2013-06-02 05:31:00,
2013-06-02 01:36:00,61.1,59.9,29.54,ENE,70,5.0,15.0,96,0.00,,,0.01,WUHU216DAVISVP2,2013-06-02 05:36:00,
2013-06-02 01:41:00,60.9,59.7,29.54,ENE,78,8.0,15.0,96,0.00,,,0.01,WUHU216DAVISVP2,2013-06-02 05:41:00,
2013-06-02 01:46:00,60.7,59.5,29.54,ESE,103,7.0,15.0,96,0.00,,,0.01,WUHU216DAVISVP2,2013-06-02 05:46:00,
2013-06-02 01:51:00,60.6,59.4,29.54,SE,143,2.0,15.0,96,0.00,,,0.01,WUHU216DAVISVP2,2013-06-02 05:51:00,
2013-06-02 01:56:00,60.5,59.4,29.55,East,82,6.0,13.0,96,0.00,,,0.01,WUHU216DAVISVP2,2013-06-02 05:56:00,
2013-06-02 02:01:00,60.4,59.5,29.55,ENE,78,10.0,13.0,97,0.00,,,0.01,WUHU216DAVISVP2,2013-06-02 06:01:00,
2013-06-02 02:06:00,60.4,59.5,29.55,East,87,4.0,15.0,97,0.00,,,0.01,WUHU216DAVISVP2,2013-06-02 06:06:00,
2013-06-02 02:11:00,60.3,59.4,29.55,East,91,4.0,15.0,97,0.00,,,0.01,WUHU216DAVISVP2,2013-06-02 06:11:00,
2013-06-02 02:16:00,60.2,59.3,29.55,NE,36,3.0,14.0,97,0.00,,,0.01,WUHU216DAVISVP2,2013-06-02 06:16:00,
2013-06-02 02:21:00,60.1,59.2,29.54,ESE,105,5.0,11.0,97,0.00,,,0.01,WUHU216DAVISVP2,2013-06-02 06:21:00,
2013-06-02 02:26:00,60.1,59.2,29.53,East,89,4.0,9.0,97,0.00,,,0.01,WUHU216DAVISVP2,2013-06-02 06:26:00,
2013-06-02 02:31:00,60.0,59.1,29.53,East,87,4.0,9.0,97,0.00,,,0.01,WUHU216DAVISVP2,2013-06-02 06:31:00,
2013-06-02 02:36:00,60.0,59.1,29.54,East,91,3.0,7.0,97,0.00,,,0.01,WUHU216DAVISVP2,2013-06-02 06:36:00,
2013-06-02 02:41:00,59.9,59.0,29.54,NE,52,3.0,7.0,97,0.00,,,0.01,WUHU216DAVISVP2,2013-06-02 06:41:00,
2013-06-02 02:46:00,59.8,58.9,29.54,East,94,6.0,6.0,97,0.00,,,0.01,WUHU216DAVISVP2,2013-06-02 06:46:00,
2013-06-02 02:51:00,59.8,58.9,29.54,NE,54,5.0,6.0,97,0.00,,,0.01,WUHU216DAVISVP2,2013-06-02 06:51:00,
2013-06-02 02:56:00,59.8,58.9,29.54,NE,53,2.0,8.0,97,0.00,,,0.01,WUHU216DAVISVP2,2013-06-02 06:56:00,
2013-06-02 03:01:00,59.8,58.9,29.53,East,83,4.0,8.0,97,0.00,,,0.01,WUHU216DAVISVP2,2013-06-02 07:01:00,
2013-06-02 03:06:00,59.7,58.8,29.53,NE,48,3.0,7.0,97,0.00,,,0.01,WUHU216DAVISVP2,2013-06-02 07:06:00,
2013-06-02 03:11:00,59.7,58.8,29.53,ENE,77,3.0,6.0,97,0.00,,,0.01,WUHU216DAVISVP2,2013-06-02 07:11:00,
2013-06-02 03:16:00,59.7,58.8,29.53,East,79,4.0,6.0,97,0.00,,,0.01,WUHU216DAVISVP2,2013-06-02 07:16:00,
2013-06-02 03:21:00,59.7,58.8,29.53,East,95,5.0,8.0,97,0.00,,,0.01,WUHU216DAVISVP2,2013-06-02 07:21:00,
2013-06-02 03:26:00,59.6,58.7,29.54,ENE,63,2.0,8.0,97,0.00,,,0.01,WUHU216DAVISVP2,2013-06-02 07:26:00,
2013-06-02 03:31:00,59.6,58.7,29.54,East,98,2.0,7.0,97,0.00,,,0.01,WUHU216DAVISVP2,2013-06-02 07:31:00,
2013-06-02 03:36:00,59.6,58.7,29.54,ENE,77,2.0,7.0,97,0.00,,,0.01,WUHU216DAVISVP2,2013-06-02 07:36:00,
2013-06-02 03:41:00,59.6,58.7,29.53,East,93,1.0,7.0,97,0.00,,,0.01,WUHU216DAVISVP2,2013-06-02 07:41:00,
2013-06-02 03:46:00,59.6,58.7,29.54,ENE,74,4.0,7.0,97,0.00,,,0.01,WUHU216DAVISVP2,2013-06-02 07:46:00,
2013-06-02 03:51:00,59.5,58.6,29.53,ENE,62,5.0,9.0,97,0.00,,,0.01,WUHU216DAVISVP2,2013-06-02 07:51:00,
2013-06-02 03:56:00,59.5,58.6,29.54,East,94,5.0,9.0,97,0.00,,,0.01,WUHU216DAVISVP2,2013-06-02 07:56:00,
2013-06-02 04:01:00,59.4,58.5,29.54,NNE,29,2.0,9.0,97,0.00,,,0.01,WUHU216DAVISVP2,2013-06-02 08:01:00,
2013-06-02 04:06:00,59.4,58.5,29.54,ENE,70,4.0,9.0,97,0.00,,,0.01,WUHU216DAVISVP2,2013-06-02 08:06:00,
2013-06-02 04:11:00,59.3,58.4,29.53,NE,37,2.0,8.0,97,0.00,,,0.01,WUHU216DAVISVP2,2013-06-02 08:11:00,
2013-06-02 04:16:00,59.3,58.4,29.53,ENE,61,3.0,8.0,97,0.00,,,0.01,WUHU216DAVISVP2,2013-06-02 08:16:00,
2013-06-02 04:21:00,59.3,58.4,29.53,East,94,6.0,7.0,97,0.00,,,0.01,WUHU216DAVISVP2,2013-06-02 08:21:00,
2013-06-02 04:26:00,59.3,58.7,29.53,NE,48,3.0,7.0,98,0.00,,,0.01,WUHU216DAVISVP2,2013-06-02 08:26:00,
2013-06-02 04:31:00,59.2,58.6,29.53,ENE,71,3.0,7.0,98,0.00,,,0.01,WUHU216DAVISVP2,2013-06-02 08:31:00,
2013-06-02 04:36:00,59.2,58.6,29.53,ENE,70,3.0,7.0,98,0.00,,,0.01,WUHU216DAVISVP2,2013-06-02 08:36:00,
2013-06-02 04:41:00,59.2,58.6,29.54,East,91,2.0,6.0,98,0.00,,,0.01,WUHU216DAVISVP2,2013-06-02 08:41:00,
2013-06-02 04:46:00,59.2,58.6,29.54,ENE,57,6.0,8.0,98,0.00,,,0.01,WUHU216DAVISVP2,2013-06-02 08:46:00,
2013-06-02 04:51:00,59.2,58.6,29.54,ENE,75,5.0,9.0,98,0.00,,,0.01,WUHU216DAVISVP2,2013-06-02 08:51:00,
2013-06-02 04:56:00,59.1,58.5,29.54,East,86,2.0,9.0,98,0.00,,,0.01,WUHU216DAVISVP2,2013-06-02 08:56:00,
2013-06-02 05:01:00,59.1,58.5,29.53,ENE,74,2.0,8.0,98,0.00,,,0.01,WUHU216DAVISVP2,2013-06-02 09:01:00,
2013-06-02 05:06:00,59.0,58.4,29.53,East,79,2.0,8.0,98,0.00,,,0.01,WUHU216DAVISVP2,2013-06-02 09:06:00,
2013-06-02 05:11:00,58.9,58.3,29.53,East,81,5.0,7.0,98,0.00,,,0.01,WUHU216DAVISVP2,2013-06-02 09:11:00,
2013-06-02 05:16:00,58.9,58.3,29.54,ENE,77,8.0,8.0,98,0.00,,,0.01,WUHU216DAVISVP2,2013-06-02 09:16:00,
2013-06-02 05:21:00,58.8,58.2,29.54,East,87,3.0,9.0,98,0.00,,,0.01,WUHU216DAVISVP2,2013-06-02 09:21:00,
2013-06-02 05:26:00,58.8,58.2,29.54,East,93,3.0,9.0,98,0.00,,,0.01,WUHU216DAVISVP2,2013-06-02 09:26:00,
2013-06-02 05:31:00,58.8,58.2,29.54,SE,124,3.0,9.0,98,0.00,,,0.01,WUHU216DAVISVP2,2013-06-02 09:31:00,
2013-06-02 05:36:00,58.7,58.1,29.55,East,92,3.0,9.0,98,0.00,,,0.01,WUHU216DAVISVP2,2013-06-02 09:36:00,
2013-06-02 05:41:00,58.6,58.0,29.55,East,79,1.0,8.0,98,0.00,,,0.01,WUHU216DAVISVP2,2013-06-02 09:41:00,
2013-06-02 05:46:00,58.6,58.0,29.55,East,91,2.0,8.0,98,0.01,,,0.02,WUHU216DAVISVP2,2013-06-02 09:46:00,
2013-06-02 05:51:00,58.6,58.0,29.55,ENE,70,4.0,7.0,98,0.01,,,0.02,WUHU216DAVISVP2,2013-06-02 09:51:00,
2013-06-02 05:56:00,58.6,58.0,29.55,NE,46,3.0,7.0,98,0.02,,,0.03,WUHU216DAVISVP2,2013-06-02 09:56:00,
2013-06-02 06:01:00,58.5,57.9,29.56,NE,53,0.0,7.0,98,0.02,,,0.03,WUHU216DAVISVP2,2013-06-02 10:01:00,
2013-06-02 06:06:00,58.4,57.8,29.56,East,82,4.0,7.0,98,0.02,,,0.03,WUHU216DAVISVP2,2013-06-02 10:06:00,
2013-06-02 06:11:00,58.4,57.8,29.56,ESE,109,4.0,8.0,98,0.02,,,0.03,WUHU216DAVISVP2,2013-06-02 10:11:00,
2013-06-02 06:16:00,58.3,57.7,29.56,East,95,8.0,9.0,98,0.02,,,0.03,WUHU216DAVISVP2,2013-06-02 10:16:00,
2013-06-02 06:21:00,58.2,57.6,29.56,ENE,75,4.0,9.0,98,0.02,,,0.03,WUHU216DAVISVP2,2013-06-02 10:21:00,
2013-06-02 06:26:00,58.1,57.5,29.56,ENE,57,7.0,9.0,98,0.02,,,0.03,WUHU216DAVISVP2,2013-06-02 10:26:00,
2013-06-02 06:31:00,58.1,57.5,29.57,East,95,10.0,10.0,98,0.02,,,0.03,WUHU216DAVISVP2,2013-06-02 10:31:00,
2013-06-02 06:36:00,57.9,57.3,29.57,SE,131,5.0,14.0,98,0.02,,,0.03,WUHU216DAVISVP2,2013-06-02 10:36:00,
2013-06-02 06:41:00,57.9,57.3,29.57,East,90,2.0,14.0,98,0.02,,,0.03,WUHU216DAVISVP2,2013-06-02 10:41:00,
2013-06-02 06:46:00,57.8,57.2,29.58,East,101,3.0,12.0,98,0.01,,,0.03,WUHU216DAVISVP2,2013-06-02 10:46:00,
2013-06-02 06:51:00,57.8,57.2,29.58,ENE,66,8.0,11.0,98,0.01,,,0.03,WUHU216DAVISVP2,2013-06-02 10:51:00,
2013-06-02 06:56:00,57.8,57.2,29.58,ENE,77,3.0,8.0,98,0.00,,,0.03,WUHU216DAVISVP2,2013-06-02 10:56:00,
2013-06-02 07:01:00,57.8,57.2,29.58,East,92,3.0,9.0,98,0.00,,,0.03,WUHU216DAVISVP2,2013-06-02 11:01:00,
2013-06-02 07:06:00,57.7,57.1,29.58,ESE,117,6.0,12.0,98,0.00,,,0.03,WUHU216DAVISVP2,2013-06-02 11:06:00,
2013-06-02 07:11:00,57.6,57.0,29.58,ESE,112,5.0,12.0,98,0.00,,,0.03,WUHU216DAVISVP2,2013-06-02 11:11:00,
2013-06-02 07:16:00,57.6,57.0,29.59,SE,134,5.0,12.0,98,0.00,,,0.03,WUHU216DAVISVP2,2013-06-02 11:16:00,
2013-06-02 07:21:00,57.5,56.9,29.59,East,100,4.0,10.0,98,0.00,,,0.03,WUHU216DAVISVP2,2013-06-02 11:21:00,
2013-06-02 07:26:00,57.4,56.8,29.59,ENE,72,4.0,10.0,98,0.00,,,0.03,WUHU216DAVISVP2,2013-06-02 11:26:00,
2013-06-02 07:31:00,57.3,56.7,29.60,ESE,106,6.0,17.0,98,0.00,,,0.03,WUHU216DAVISVP2,2013-06-02 11:31:00,
2013-06-02 07:36:00,57.2,56.6,29.60,East,86,4.0,17.0,98,0.00,,,0.03,WUHU216DAVISVP2,2013-06-02 11:36:00,
2013-06-02 07:41:00,57.1,56.5,29.61,ESE,106,9.0,15.0,98,0.00,,,0.03,WUHU216DAVISVP2,2013-06-02 11:41:00,
2013-06-02 07:46:00,57.0,56.4,29.61,East,98,5.0,15.0,98,0.00,,,0.03,WUHU216DAVISVP2,2013-06-02 11:46:00,
2013-06-02 07:51:00,56.8,56.2,29.61,ENE,71,4.0,15.0,98,0.00,,,0.03,WUHU216DAVISVP2,2013-06-02 11:51:00,
2013-06-02 07:56:00,56.5,55.9,29.62,SE,128,6.0,15.0,98,0.00,,,0.03,WUHU216DAVISVP2,2013-06-02 11:56:00,
2013-06-02 08:01:00,56.4,55.8,29.62,ESE,115,9.0,14.0,98,0.00,,,0.03,WUHU216DAVISVP2,2013-06-02 12:01:00,
2013-06-02 08:06:00,55.4,54.5,29.63,ESE,113,14.0,16.0,97,0.00,,,0.03,WUHU216DAVISVP2,2013-06-02 12:06:00,
2013-06-02 08:11:00,54.1,53.2,29.64,ENE,77,7.0,16.0,97,0.00,,,0.03,WUHU216DAVISVP2,2013-06-02 12:11:00,
2013-06-02 08:16:00,53.3,52.4,29.64,South,183,5.0,16.0,97,0.00,,,0.03,WUHU216DAVISVP2,2013-06-02 12:16:00,
2013-06-02 08:21:00,52.1,51.2,29.65,ESE,115,10.0,19.0,97,0.00,,,0.03,WUHU216DAVISVP2,2013-06-02 12:21:00,
2013-06-02 08:26:00,51.6,51.0,29.65,ESE,113,8.0,19.0,98,0.00,,,0.03,WUHU216DAVISVP2,2013-06-02 12:26:00,
2013-06-02 08:31:00,50.7,49.8,29.66,ESE,114,7.0,19.0,97,0.00,,,0.03,WUHU216DAVISVP2,2013-06-02 12:31:00,
2013-06-02 08:36:00,49.9,49.1,29.66,SE,132,14.0,18.0,97,0.00,,,0.03,WUHU216DAVISVP2,2013-06-02 12:36:00,
2013-06-02 08:41:00,49.1,48.3,29.66,ESE,117,10.0,16.0,97,0.00,,,0.03,WUHU216DAVISVP2,2013-06-02 12:41:00,
2013-06-02 08:46:00,48.9,48.3,29.67,SE,124,17.0,17.0,98,0.00,,,0.03,WUHU216DAVISVP2,2013-06-02 12:46:00,
2013-06-02 08:51:00,48.5,47.7,29.67,SSE,159,12.0,18.0,97,0.00,,,0.03,WUHU216DAVISVP2,2013-06-02 12:51:00,
2013-06-02 08:56:00,48.4,47.8,29.67,SE,135,9.0,18.0,98,0.00,,,0.03,WUHU216DAVISVP2,2013-06-02 12:56:00,
2013-06-02 09:01:00,48.1,47.3,29.68,SE,125,6.0,17.0,97,0.00,,,0.03,WUHU216DAVISVP2,2013-06-02 13:01:00,
2013-06-02 09:06:00,47.8,47.0,29.68,ESE,122,10.0,17.0,97,0.00,,,0.03,WUHU216DAVISVP2,2013-06-02 13:06:00,
2013-06-02 09:11:00,47.6,46.8,29.68,SE,140,14.0,16.0,97,0.00,,,0.03,WUHU216DAVISVP2,2013-06-02 13:11:00,
2013-06-02 09:16:00,47.3,46.5,29.69,SSE,149,7.0,16.0,97,0.00,,,0.03,WUHU216DAVISVP2,2013-06-02 13:16:00,
2013-06-02 09:21:00,47.2,46.4,29.69,ESE,102,9.0,16.0,97,0.00,,,0.03,WUHU216DAVISVP2,2013-06-02 13:21:00,
2013-06-02 09:26:00,47.2,46.4,29.69,ESE,113,7.0,16.0,97,0.00,,,0.03,WUHU216DAVISVP2,2013-06-02 13:26:00,
2013-06-02 09:31:00,47.0,46.2,29.70,NE,36,8.0,14.0,97,0.00,,,0.03,WUHU216DAVISVP2,2013-06-02 13:31:00,
2013-06-02 09:36:00,46.9,46.1,29.70,SSE,163,4.0,14.0,97,0.00,,,0.03,WUHU216DAVISVP2,2013-06-02 13:36:00,
2013-06-02 09:41:00,47.0,46.2,29.70,East,101,2.0,14.0,97,0.00,,,0.03,WUHU216DAVISVP2,2013-06-02 13:41:00,
2013-06-02 09:46:00,46.9,46.1,29.71,East,94,7.0,13.0,97,0.00,,,0.03,WUHU216DAVISVP2,2013-06-02 13:46:00,
2013-06-02 09:51:00,46.7,45.6,29.71,East,98,8.0,14.0,96,0.00,,,0.03,WUHU216DAVISVP2,2013-06-02 13:51:00,
2013-06-02 09:56:00,46.7,45.6,29.72,SSE,149,12.0,17.0,96,0.00,,,0.03,WUHU216DAVISVP2,2013-06-02 13:56:00,
2013-06-02 10:01:00,46.8,45.7,29.72,SW,214,10.0,17.0,96,0.00,,,0.03,WUHU216DAVISVP2,2013-06-02 14:01:00,
2013-06-02 10:06:00,46.8,45.4,29.72,ESE,117,8.0,16.0,95,0.00,,,0.03,WUHU216DAVISVP2,2013-06-02 14:06:00,
2013-06-02 10:11:00,47.0,45.6,29.72,SSE,148,9.0,18.0,95,0.00,,,0.03,WUHU216DAVISVP2,2013-06-02 14:11:00,
2013-06-02 10:16:00,47.1,45.7,29.72,SE,130,14.0,18.0,95,0.00,,,0.03,WUHU216DAVISVP2,2013-06-02 14:16:00,
2013-06-02 10:21:00,47.1,45.4,29.72,SE,139,10.0,18.0,94,0.00,,,0.03,WUHU216DAVISVP2,2013-06-02 14:21:00,
2013-06-02 10:26:00,47.3,45.6,29.72,SSE,148,8.0,18.0,94,0.00,,,0.03,WUHU216DAVISVP2,2013-06-02 14:26:00,
2013-06-02 10:31:00,47.6,45.9,29.73,SW,219,5.0,17.0,94,0.00,,,0.03,WUHU216DAVISVP2,2013-06-02 14:31:00,
2013-06-02 10:36:00,47.9,45.9,29.73,SSW,198,5.0,17.0,93,0.00,,,0.03,WUHU216DAVISVP2,2013-06-02 14:36:00,
2013-06-02 10:41:00,47.8,45.5,29.73,SE,146,7.0,16.0,92,0.00,,,0.03,WUHU216DAVISVP2,2013-06-02 14:41:00,
2013-06-02 10:46:00,47.9,45.6,29.73,SE,146,6.0,16.0,92,0.00,,,0.03,WUHU216DAVISVP2,2013-06-02 14:46:00,
2013-06-02 10:51:00,48.2,45.9,29.73,SE,129,8.0,14.0,92,0.00,,,0.03,WUHU216DAVISVP2,2013-06-02 14:51:00,
2013-06-02 10:56:00,48.5,45.7,29.74,ESE,112,7.0,14.0,90,0.00,,,0.03,WUHU216DAVISVP2,2013-06-02 14:56:00,
2013-06-02 11:01:00,48.7,45.9,29.74,SE,138,7.0,13.0,90,0.00,,,0.03,WUHU216DAVISVP2,2013-06-02 15:01:00,
2013-06-02 11:06:00,48.6,45.8,29.74,SE,133,8.0,14.0,90,0.00,,,0.03,WUHU216DAVISVP2,2013-06-02 15:06:00,
2013-06-02 11:11:00,48.7,45.9,29.75,SSE,151,9.0,14.0,90,0.00,,,0.03,WUHU216DAVISVP2,2013-06-02 15:11:00,
2013-06-02 11:16:00,48.6,45.8,29.75,SE,138,7.0,18.0,90,0.00,,,0.03,WUHU216DAVISVP2,2013-06-02 15:16:00,
2013-06-02 11:21:00,48.7,45.9,29.75,SE,133,9.0,18.0,90,0.00,,,0.03,WUHU216DAVISVP2,2013-06-02 15:21:00,
2013-06-02 11:26:00,48.6,45.2,29.75,SE,128,5.0,17.0,88,0.00,,,0.03,WUHU216DAVISVP2,2013-06-02 15:26:00,
2013-06-02 11:31:00,48.6,45.5,29.75,SE,124,9.0,18.0,89,0.00,,,0.03,WUHU216DAVISVP2,2013-06-02 15:31:00,
2013-06-02 11:36:00,48.7,45.6,29.75,ESE,123,9.0,18.0,89,0.00,,,0.03,WUHU216DAVISVP2,2013-06-02 15:36:00,
2013-06-02 11:41:00,48.9,45.8,29.75,SSE,149,9.0,18.0,89,0.00,,,0.03,WUHU216DAVISVP2,2013-06-02 15:41:00,
2013-06-02 11:46:00,49.1,46.0,29.75,SE,130,7.0,18.0,89,0.00,,,0.03,WUHU216DAVISVP2,2013-06-02 15:46:00,
2013-06-02 11:51:00,49.3,45.9,29.75,ESE,105,8.0,14.0,88,0.00,,,0.03,WUHU216DAVISVP2,2013-06-02 15:51:00,
2013-06-02 11:56:00,50.1,46.7,29.75,ENE,78,4.0,14.0,88,0.00,,,0.03,WUHU216DAVISVP2,2013-06-02 15:56:00,
2013-06-02 12:01:00,50.6,46.3,29.75,SE,138,9.0,15.0,85,0.00,,,0.03,WUHU216DAVISVP2,2013-06-02 16:01:00,
2013-06-02 12:06:00,50.7,46.7,29.76,SE,129,9.0,15.0,86,0.00,,,0.03,WUHU216DAVISVP2,2013-06-02 16:06:00,
2013-06-02 12:11:00,50.6,46.3,29.76,ESE,114,7.0,16.0,85,0.00,,,0.03,WUHU216DAVISVP2,2013-06-02 16:11:00,
2013-06-02 12:16:00,51.0,46.6,29.76,SE,139,3.0,16.0,85,0.00,,,0.03,WUHU216DAVISVP2,2013-06-02 16:16:00,
2013-06-02 12:21:00,51.0,46.3,29.76,ENE,70,7.0,16.0,84,0.00,,,0.03,WUHU216DAVISVP2,2013-06-02 16:21:00,
2013-06-02 12:26:00,51.0,46.6,29.77,SSE,147,9.0,16.0,85,0.00,,,0.03,WUHU216DAVISVP2,2013-06-02 16:26:00,
2013-06-02 12:31:00,51.2,46.5,29.77,SE,135,9.0,14.0,84,0.00,,,0.03,WUHU216DAVISVP2,2013-06-02 16:31:00,
2013-06-02 12:36:00,51.6,46.6,29.77,ESE,113,10.0,15.0,83,0.00,,,0.03,WUHU216DAVISVP2,2013-06-02 16:36:00,
2013-06-02 12:41:00,51.7,46.7,29.77,SE,146,7.0,15.0,83,0.00,,,0.03,WUHU216DAVISVP2,2013-06-02 16:41:00,
2013-06-02 12:46:00,51.8,46.5,29.77,East,82,8.0,15.0,82,0.00,,,0.03,WUHU216DAVISVP2,2013-06-02 16:46:00,
2013-06-02 12:51:00,51.8,46.5,29.77,SSE,149,10.0,15.0,82,0.00,,,0.03,WUHU216DAVISVP2,2013-06-02 16:51:00,
2013-06-02 12:56:00,51.7,45.7,29.78,SE,127,8.0,14.0,80,0.00,,,0.03,WUHU216DAVISVP2,2013-06-02 16:56:00,
2013-06-02 13:01:00,51.6,46.3,29.78,East,86,7.0,14.0,82,0.00,,,0.03,WUHU216DAVISVP2,2013-06-02 17:01:00,
2013-06-02 13:06:00,52.0,46.7,29.79,ESE,104,3.0,14.0,82,0.00,,,0.03,WUHU216DAVISVP2,2013-06-02 17:06:00,
2013-06-02 13:11:00,51.9,46.6,29.79,SSE,159,7.0,15.0,82,0.00,,,0.03,WUHU216DAVISVP2,2013-06-02 17:11:00,
2013-06-02 13:16:00,52.1,46.8,29.79,ESE,120,5.0,15.0,82,0.00,,,0.03,WUHU216DAVISVP2,2013-06-02 17:16:00,
2013-06-02 13:21:00,51.9,46.0,29.80,SSE,168,5.0,20.0,80,0.00,,,0.03,WUHU216DAVISVP2,2013-06-02 17:21:00,
2013-06-02 13:26:00,52.0,46.3,29.80,ESE,117,4.0,20.0,81,0.00,,,0.03,WUHU216DAVISVP2,2013-06-02 17:26:00,
2013-06-02 13:31:00,52.0,46.4,29.80,SE,128,11.0,20.0,81,0.00,,,0.03,WUHU216DAVISVP2,2013-06-02 17:31:00,
2013-06-02 13:36:00,52.1,45.8,29.80,SSE,160,7.0,20.0,79,0.00,,,0.03,WUHU216DAVISVP2,2013-06-02 17:36:00,
2013-06-02 13:41:00,52.3,46.4,29.80,ESE,108,11.0,14.0,80,0.00,,,0.03,WUHU216DAVISVP2,2013-06-02 17:41:00,
2013-06-02 13:46:00,52.5,46.2,29.80,SSE,155,9.0,15.0,79,0.00,,,0.03,WUHU216DAVISVP2,2013-06-02 17:46:00,
2013-06-02 13:51:00,52.6,46.3,29.81,ESE,105,2.0,15.0,79,0.00,,,0.03,WUHU216DAVISVP2,2013-06-02 17:51:00,
2013-06-02 13:56:00,52.7,46.0,29.80,SE,128,7.0,17.0,78,0.00,,,0.03,WUHU216DAVISVP2,2013-06-02 17:56:00,
2013-06-02 14:01:00,52.8,46.5,29.81,SE,124,8.0,17.0,79,0.00,,,0.03,WUHU216DAVISVP2,2013-06-02 18:01:00,
2013-06-02 14:06:00,52.9,46.3,29.81,SE,143,6.0,17.0,78,0.00,,,0.03,WUHU216DAVISVP2,2013-06-02 18:06:00,
2013-06-02 14:11:00,52.9,45.6,29.81,SE,137,4.0,18.0,76,0.00,,,0.03,WUHU216DAVISVP2,2013-06-02 18:11:00,
2013-06-02 14:16:00,52.9,45.6,29.81,SE,141,7.0,18.0,76,0.00,,,0.03,WUHU216DAVISVP2,2013-06-02 18:16:00,
2013-06-02 14:21:00,53.3,46.3,29.81,ESE,115,11.0,18.0,77,0.00,,,0.03,WUHU216DAVISVP2,2013-06-02 18:21:00,
2013-06-02 14:26:00,53.5,46.2,29.82,SE,132,7.0,18.0,76,0.00,,,0.03,WUHU216DAVISVP2,2013-06-02 18:26:00,
2013-06-02 14:31:00,53.4,46.1,29.82,SSE,152,8.0,15.0,76,0.00,,,0.03,WUHU216DAVISVP2,2013-06-02 18:31:00,
2013-06-02 14:36:00,53.4,46.4,29.82,ESE,111,9.0,15.0,77,0.00,,,0.03,WUHU216DAVISVP2,2013-06-02 18:36:00,
2013-06-02 14:41:00,53.4,46.1,29.82,ENE,67,6.0,15.0,76,0.00,,,0.03,WUHU216DAVISVP2,2013-06-02 18:41:00,
2013-06-02 14:46:00,53.5,45.4,29.83,ESE,118,10.0,15.0,74,0.00,,,0.03,WUHU216DAVISVP2,2013-06-02 18:46:00,
2013-06-02 14:51:00,52.9,45.3,29.83,SE,141,8.0,15.0,75,0.00,,,0.03,WUHU216DAVISVP2,2013-06-02 18:51:00,
2013-06-02 14:56:00,52.9,45.3,29.83,South,174,5.0,19.0,75,0.00,,,0.03,WUHU216DAVISVP2,2013-06-02 18:56:00,
2013-06-02 15:01:00,52.6,44.9,29.83,SE,145,9.0,19.0,75,0.00,,,0.03,WUHU216DAVISVP2,2013-06-02 19:01:00,
2013-06-02 15:06:00,52.6,45.2,29.83,SSE,151,9.0,19.0,76,0.00,,,0.03,WUHU216DAVISVP2,2013-06-02 19:06:00,
2013-06-02 15:11:00,52.7,45.1,29.83,SE,132,13.0,19.0,75,0.00,,,0.03,WUHU216DAVISVP2,2013-06-02 19:11:00,
2013-06-02 15:16:00,52.7,45.1,29.83,ESE,110,5.0,18.0,75,0.00,,,0.03,WUHU216DAVISVP2,2013-06-02 19:16:00,
2013-06-02 15:21:00,52.9,44.9,29.83,SSW,204,4.0,18.0,74,0.00,,,0.03,WUHU216DAVISVP2,2013-06-02 19:21:00,
2013-06-02 15:26:00,53.4,45.0,29.84,SE,141,9.0,18.0,73,0.00,,,0.03,WUHU216DAVISVP2,2013-06-02 19:26:00,
2013-06-02 15:31:00,53.5,45.5,29.84,ESE,115,14.0,16.0,74,0.00,,,0.03,WUHU216DAVISVP2,2013-06-02 19:31:00,
2013-06-02 15:36:00,53.5,45.2,29.84,ENE,72,5.0,18.0,73,0.00,,,0.03,WUHU216DAVISVP2,2013-06-02 19:36:00,
2013-06-02 15:41:00,53.2,45.2,29.84,ESE,116,8.0,18.0,74,0.00,,,0.03,WUHU216DAVISVP2,2013-06-02 19:41:00,
2013-06-02 15:46:00,53.2,45.6,29.84,ESE,103,3.0,16.0,75,0.00,,,0.03,WUHU216DAVISVP2,2013-06-02 19:46:00,
2013-06-02 15:51:00,53.4,45.1,29.84,SE,140,7.0,16.0,73,0.00,,,0.03,WUHU216DAVISVP2,2013-06-02 19:51:00,
2013-06-02 15:56:00,53.2,44.9,29.84,SE,134,5.0,14.0,73,0.00,,,0.03,WUHU216DAVISVP2,2013-06-02 19:56:00,
2013-06-02 16:01:00,53.2,45.2,29.84,SE,145,4.0,14.0,74,0.00,,,0.03,WUHU216DAVISVP2,2013-06-02 20:01:00,
2013-06-02 16:06:00,53.6,45.9,29.84,ESE,115,9.0,14.0,75,0.00,,,0.03,WUHU216DAVISVP2,2013-06-02 20:06:00,
2013-06-02 16:11:00,53.9,45.9,29.84,South,172,9.0,15.0,74,0.00,,,0.03,WUHU216DAVISVP2,2013-06-02 20:11:00,
2013-06-02 16:16:00,54.0,45.6,29.84,ESE,115,8.0,15.0,73,0.00,,,0.03,WUHU216DAVISVP2,2013-06-02 20:16:00,
2013-06-02 16:21:00,53.8,45.1,29.85,East,98,9.0,15.0,72,0.00,,,0.03,WUHU216DAVISVP2,2013-06-02 20:21:00,
2013-06-02 16:26:00,54.1,46.1,29.84,South,178,5.0,15.0,74,0.00,,,0.03,WUHU216DAVISVP2,2013-06-02 20:26:00,
2013-06-02 16:31:00,54.9,46.5,29.84,East,91,9.0,14.0,73,0.00,,,0.03,WUHU216DAVISVP2,2013-06-02 20:31:00,
2013-06-02 16:36:00,54.9,45.4,29.84,ENE,77,11.0,14.0,70,0.00,,,0.03,WUHU216DAVISVP2,2013-06-02 20:36:00,
2013-06-02 16:41:00,54.5,45.4,29.84,SE,134,6.0,14.0,71,0.00,,,0.03,WUHU216DAVISVP2,2013-06-02 20:41:00,
2013-06-02 16:46:00,54.8,45.9,29.85,SSE,148,2.0,14.0,72,0.00,,,0.03,WUHU216DAVISVP2,2013-06-02 20:46:00,
2013-06-02 16:51:00,54.5,45.4,29.85,SE,128,6.0,14.0,71,0.00,,,0.03,WUHU216DAVISVP2,2013-06-02 20:51:00,
2013-06-02 16:56:00,54.4,45.6,29.84,SE,135,7.0,14.0,72,0.00,,,0.03,WUHU216DAVISVP2,2013-06-02 20:56:00,
2013-06-02 17:01:00,54.7,45.2,29.85,East,81,7.0,13.0,70,0.00,,,0.03,WUHU216DAVISVP2,2013-06-02 21:01:00,
2013-06-02 17:06:00,54.4,44.9,29.85,SE,135,5.0,13.0,70,0.00,,,0.03,WUHU216DAVISVP2,2013-06-02 21:06:00,
2013-06-02 17:11:00,53.9,44.7,29.85,SSE,150,6.0,13.0,71,0.00,,,0.03,WUHU216DAVISVP2,2013-06-02 21:11:00,
2013-06-02 17:16:00,53.7,44.6,29.85,East,94,1.0,13.0,71,0.00,,,0.03,WUHU216DAVISVP2,2013-06-02 21:16:00,
2013-06-02 17:21:00,54.2,45.5,29.85,SSE,150,9.0,12.0,72,0.00,,,0.03,WUHU216DAVISVP2,2013-06-02 21:21:00,
2013-06-02 17:26:00,53.7,44.3,29.85,SE,135,2.0,14.0,70,0.00,,,0.03,WUHU216DAVISVP2,2013-06-02 21:26:00,
2013-06-02 17:31:00,53.7,44.9,29.85,SE,128,3.0,14.0,72,0.00,,,0.03,WUHU216DAVISVP2,2013-06-02 21:31:00,
2013-06-02 17:36:00,53.6,44.9,29.85,South,191,2.0,14.0,72,0.00,,,0.03,WUHU216DAVISVP2,2013-06-02 21:36:00,
2013-06-02 17:41:00,54.0,45.3,29.86,ESE,113,0.0,10.0,72,0.00,,,0.03,WUHU216DAVISVP2,2013-06-02 21:41:00,
2013-06-02 17:46:00,54.1,45.0,29.86,South,187,3.0,10.0,71,0.00,,,0.03,WUHU216DAVISVP2,2013-06-02 21:46:00,
2013-06-02 17:51:00,54.1,44.6,29.86,SE,129,4.0,10.0,70,0.00,,,0.03,WUHU216DAVISVP2,2013-06-02 21:51:00,
2013-06-02 17:56:00,53.7,44.3,29.86,South,188,1.0,10.0,70,0.00,,,0.03,WUHU216DAVISVP2,2013-06-02 21:56:00,
2013-06-02 18:01:00,53.6,44.0,29.86,SSE,150,1.0,10.0,70,0.00,,,0.03,WUHU216DAVISVP2,2013-06-02 22:01:00,
2013-06-02 18:06:00,53.6,44.0,29.86,SSE,163,7.0,9.0,70,0.00,,,0.03,WUHU216DAVISVP2,2013-06-02 22:06:00,
2013-06-02 18:11:00,53.3,44.2,29.86,SE,134,3.0,9.0,71,0.00,,,0.03,WUHU216DAVISVP2,2013-06-02 22:11:00,
2013-06-02 18:16:00,53.2,44.5,29.86,WSW,245,4.0,9.0,72,0.00,,,0.03,WUHU216DAVISVP2,2013-06-02 22:16:00,
2013-06-02 18:21:00,53.1,44.1,29.86,SSE,159,5.0,9.0,71,0.00,,,0.03,WUHU216DAVISVP2,2013-06-02 22:21:00,
2013-06-02 18:26:00,53.0,44.0,29.86,South,179,6.0,9.0,71,0.00,,,0.03,WUHU216DAVISVP2,2013-06-02 22:26:00,
2013-06-02 18:31:00,52.9,43.9,29.87,SE,139,5.0,10.0,71,0.00,,,0.03,WUHU216DAVISVP2,2013-06-02 22:31:00,
2013-06-02 18:36:00,52.7,43.7,29.86,SE,143,3.0,10.0,71,0.00,,,0.03,WUHU216DAVISVP2,2013-06-02 22:36:00,
2013-06-02 18:41:00,52.6,43.9,29.86,ESE,113,3.0,10.0,72,0.00,,,0.03,WUHU216DAVISVP2,2013-06-02 22:41:00,
2013-06-02 18:46:00,52.5,43.8,29.86,SSE,166,6.0,10.0,72,0.00,,,0.03,WUHU216DAVISVP2,2013-06-02 22:46:00,
2013-06-02 18:51:00,52.4,43.7,29.86,SSE,150,6.0,10.0,72,0.00,,,0.03,WUHU216DAVISVP2,2013-06-02 22:51:00,
2013-06-02 18:56:00,52.4,43.7,29.87,SW,236,6.0,9.0,72,0.00,,,0.03,WUHU216DAVISVP2,2013-06-02 22:56:00,
2013-06-02 19:01:00,52.3,43.6,29.87,SE,124,3.0,11.0,72,0.00,,,0.03,WUHU216DAVISVP2,2013-06-02 23:01:00,
2013-06-02 19:06:00,52.1,43.1,29.87,WSW,238,1.0,11.0,71,0.00,,,0.03,WUHU216DAVISVP2,2013-06-02 23:06:00,
2013-06-02 19:11:00,52.1,43.4,29.88,South,174,1.0,10.0,72,0.00,,,0.03,WUHU216DAVISVP2,2013-06-02 23:11:00,
2013-06-02 19:16:00,52.0,43.7,29.88,SSW,204,4.0,10.0,73,0.00,,,0.03,WUHU216DAVISVP2,2013-06-02 23:16:00,
2013-06-02 19:21:00,51.8,43.2,29.88,East,95,6.0,9.0,72,0.00,,,0.03,WUHU216DAVISVP2,2013-06-02 23:21:00,
2013-06-02 19:26:00,51.5,42.9,29.88,SE,134,9.0,13.0,72,0.00,,,0.03,WUHU216DAVISVP2,2013-06-02 23:26:00,
2013-06-02 19:31:00,51.4,43.1,29.88,SE,134,5.0,13.0,73,0.00,,,0.03,WUHU216DAVISVP2,2013-06-02 23:31:00,
2013-06-02 19:36:00,51.3,43.0,29.89,SE,141,5.0,13.0,73,0.00,,,0.03,WUHU216DAVISVP2,2013-06-02 23:36:00,
2013-06-02 19:41:00,51.3,43.0,29.89,SSW,199,0.0,13.0,73,0.00,,,0.03,WUHU216DAVISVP2,2013-06-02 23:41:00,
2013-06-02 19:46:00,51.2,42.9,29.89,SE,131,5.0,8.0,73,0.00,,,0.03,WUHU216DAVISVP2,2013-06-02 23:46:00,
2013-06-02 19:51:00,51.1,43.2,29.89,ESE,110,4.0,8.0,74,0.00,,,0.03,WUHU216DAVISVP2,2013-06-02 23:51:00,
2013-06-02 19:56:00,51.0,43.1,29.89,SE,145,1.0,8.0,74,0.00,,,0.03,WUHU216DAVISVP2,2013-06-02 23:56:00,
2013-06-02 20:01:00,51.0,43.4,29.89,SE,141,7.0,8.0,75,0.00,,,0.03,WUHU216DAVISVP2,2013-06-03 00:01:00,
2013-06-02 20:06:00,51.0,43.1,29.89,SE,125,2.0,9.0,74,0.00,,,0.03,WUHU216DAVISVP2,2013-06-03 00:06:00,
2013-06-02 20:11:00,50.9,43.3,29.90,SSE,158,2.0,9.0,75,0.00,,,0.03,WUHU216DAVISVP2,2013-06-03 00:11:00,
2013-06-02 20:16:00,50.8,43.2,29.90,ESE,123,4.0,9.0,75,0.00,,,0.03,WUHU216DAVISVP2,2013-06-03 00:16:00,
2013-06-02 20:21:00,50.7,42.8,29.90,SE,130,7.0,8.0,74,0.00,,,0.03,WUHU216DAVISVP2,2013-06-03 00:21:00,
2013-06-02 20:26:00,50.5,42.9,29.90,South,169,7.0,8.0,75,0.00,,,0.03,WUHU216DAVISVP2,2013-06-03 00:26:00,
2013-06-02 20:31:00,50.4,42.8,29.90,SE,134,6.0,8.0,75,0.00,,,0.03,WUHU216DAVISVP2,2013-06-03 00:31:00,
2013-06-02 20:36:00,50.3,42.8,29.90,SE,141,6.0,8.0,75,0.00,,,0.03,WUHU216DAVISVP2,2013-06-03 00:36:00,
2013-06-02 20:41:00,50.2,43.0,29.91,South,186,4.0,8.0,76,0.00,,,0.03,WUHU216DAVISVP2,2013-06-03 00:41:00,
2013-06-02 20:46:00,50.1,43.2,29.90,SW,225,0.0,7.0,77,0.00,,,0.03,WUHU216DAVISVP2,2013-06-03 00:46:00,
2013-06-02 20:51:00,50.1,42.9,29.91,SSE,166,3.0,7.0,76,0.00,,,0.03,WUHU216DAVISVP2,2013-06-03 00:51:00,
2013-06-02 20:56:00,49.9,42.4,29.91,SE,141,5.0,6.0,75,0.00,,,0.03,WUHU216DAVISVP2,2013-06-03 00:56:00,
2013-06-02 21:01:00,49.8,42.2,29.91,SE,146,6.0,9.0,75,0.00,,,0.03,WUHU216DAVISVP2,2013-06-03 01:01:00,
2013-06-02 21:06:00,49.7,42.1,29.91,SSE,152,2.0,9.0,75,0.00,,,0.03,WUHU216DAVISVP2,2013-06-03 01:06:00,
2013-06-02 21:11:00,49.6,42.1,29.91,SE,139,4.0,9.0,75,0.00,,,0.03,WUHU216DAVISVP2,2013-06-03 01:11:00,
2013-06-02 21:16:00,49.5,42.3,29.91,South,172,0.0,9.0,76,0.00,,,0.03,WUHU216DAVISVP2,2013-06-03 01:16:00,
2013-06-02 21:21:00,49.3,42.1,29.91,SSW,198,2.0,7.0,76,0.00,,,0.03,WUHU216DAVISVP2,2013-06-03 01:21:00,
2013-06-02 21:26:00,49.1,42.3,29.91,SE,140,3.0,9.0,77,0.00,,,0.03,WUHU216DAVISVP2,2013-06-03 01:26:00,
2013-06-02 21:31:00,48.9,42.1,29.92,SSE,150,3.0,9.0,77,0.00,,,0.03,WUHU216DAVISVP2,2013-06-03 01:31:00,
2013-06-02 21:37:00,48.8,42.0,29.92,SE,145,2.0,8.0,77,0.00,,,0.03,WUHU216DAVISVP2,2013-06-03 01:37:00,
2013-06-02 21:42:00,48.7,41.9,29.91,SW,236,4.0,8.0,77,0.00,,,0.03,WUHU216DAVISVP2,2013-06-03 01:42:00,
2013-06-02 21:47:00,48.6,42.1,29.92,SSW,212,5.0,8.0,78,0.00,,,0.03,WUHU216DAVISVP2,2013-06-03 01:47:00,
2013-06-02 21:52:00,48.5,41.7,29.92,SW,214,3.0,7.0,77,0.00,,,0.03,WUHU216DAVISVP2,2013-06-03 01:52:00,
2013-06-02 21:57:00,48.2,41.4,29.92,SW,225,4.0,7.0,77,0.00,,,0.03,WUHU216DAVISVP2,2013-06-03 01:57:00,
2013-06-02 22:02:00,47.9,41.4,29.92,WSW,237,4.0,7.0,78,0.00,,,0.03,WUHU216DAVISVP2,2013-06-03 02:02:00,
2013-06-02 22:07:00,47.5,41.3,29.92,South,186,2.0,7.0,79,0.00,,,0.03,WUHU216DAVISVP2,2013-06-03 02:07:00,
2013-06-02 22:12:00,47.1,41.0,29.93,SSW,201,0.0,7.0,79,0.00,,,0.03,WUHU216DAVISVP2,2013-06-03 02:12:00,
2013-06-02 22:17:00,46.7,41.2,29.93,SW,221,0.0,6.0,81,0.00,,,0.03,WUHU216DAVISVP2,2013-06-03 02:17:00,
2013-06-02 22:22:00,46.3,40.8,29.93,SW,219,0.0,3.0,81,0.00,,,0.03,WUHU216DAVISVP2,2013-06-03 02:22:00,
2013-06-02 22:27:00,46.0,41.1,29.93,SW,221,0.0,2.0,83,0.00,,,0.03,WUHU216DAVISVP2,2013-06-03 02:27:00,
2013-06-02 22:32:00,45.5,40.9,29.93,SW,221,0.0,1.0,84,0.00,,,0.03,WUHU216DAVISVP2,2013-06-03 02:32:00,
2013-06-02 22:37:00,45.0,40.5,29.93,SW,221,0.0,0.0,84,0.00,,,0.03,WUHU216DAVISVP2,2013-06-03 02:37:00,
2013-06-02 22:42:00,44.5,40.3,29.93,SW,221,0.0,0.0,85,0.00,,,0.03,WUHU216DAVISVP2,2013-06-03 02:42:00,
2013-06-02 22:47:00,43.9,40.0,29.93,SW,221,0.0,0.0,86,0.00,,,0.03,WUHU216DAVISVP2,2013-06-03 02:47:00,
2013-06-02 22:52:00,43.2,39.6,29.93,SW,221,0.0,0.0,87,0.00,,,0.03,WUHU216DAVISVP2,2013-06-03 02:52:00,
2013-06-02 22:57:00,42.7,39.4,29.94,SW,221,0.0,0.0,88,0.00,,,0.03,WUHU216DAVISVP2,2013-06-03 02:57:00,
2013-06-02 23:02:00,42.0,39.0,29.94,SW,221,0.0,0.0,89,0.00,,,0.03,WUHU216DAVISVP2,2013-06-03 03:02:00,
2013-06-02 23:07:00,42.0,39.8,29.94,SW,221,0.0,0.0,92,0.00,,,0.03,WUHU216DAVISVP2,2013-06-03 03:07:00,
2013-06-02 23:12:00,42.0,39.5,29.94,SW,221,0.0,0.0,91,0.00,,,0.03,WUHU216DAVISVP2,2013-06-03 03:12:00,
2013-06-02 23:17:00,42.0,39.8,29.94,SW,221,0.0,0.0,92,0.00,,,0.03,WUHU216DAVISVP2,2013-06-03 03:17:00,
2013-06-02 23:22:00,42.0,39.8,29.94,SW,221,0.0,0.0,92,0.00,,,0.03,WUHU216DAVISVP2,2013-06-03 03:22:00,
2013-06-02 23:27:00,41.7,39.5,29.94,SW,221,0.0,0.0,92,0.00,,,0.03,WUHU216DAVISVP2,2013-06-03 03:27:00,
2013-06-02 23:32:00,41.6,39.7,29.94,SW,221,0.0,0.0,93,0.00,,,0.03,WUHU216DAVISVP2,2013-06-03 03:32:00,
2013-06-02 23:37:00,41.5,39.6,29.94,SW,221,0.0,0.0,93,0.00,,,0.03,WUHU216DAVISVP2,2013-06-03 03:37:00,
2013-06-02 23:42:00,41.4,39.5,29.94,SW,221,0.0,0.0,93,0.00,,,0.03,WUHU216DAVISVP2,2013-06-03 03:42:00,
2013-06-02 23:47:00,41.4,39.5,29.94,SW,221,0.0,0.0,93,0.00,,,0.03,WUHU216DAVISVP2,2013-06-03 03:47:00,
2013-06-02 23:52:00,41.4,39.5,29.94,SW,221,0.0,0.0,93,0.00,,,0.03,WUHU216DAVISVP2,2013-06-03 03:52:00,
2013-06-02 23:57:00,41.2,39.3,29.94,SW,221,0.0,0.0,93,0.00,,,0.03,WUHU216DAVISVP2,2013-06-03 03:57:00,